createdAt,value
2019-01-18T00:00:14.533Z,3.50
2019-01-18T00:02:42.970Z,5.70
2019-01-18T00:05:22.050Z,3.83
2019-01-18T00:07:55.290Z,4.43
2019-01-18T00:10:24.745Z,5.70
2019-01-18T00:12:54.874Z,2.30
2019-01-18T00:15:25.006Z,4.00
2019-01-18T00:17:53.690Z,2.20
2019-01-18T00:20:27.698Z,3.07
2019-01-18T00:22:59.103Z,4.00
2019-01-18T00:25:33.275Z,4.13
2019-01-18T00:28:10.865Z,4.73
2019-01-18T00:30:40.953Z,2.80
2019-01-18T00:33:12.052Z,4.80
2019-01-18T00:35:43.554Z,2.50
2019-01-18T00:38:11.998Z,2.70
2019-01-18T00:40:46.233Z,3.13
2019-01-18T00:43:17.465Z,4.53
2019-01-18T00:45:48.805Z,2.63
2019-01-18T00:48:20.075Z,3.60
2019-01-18T00:50:48.565Z,3.87
2019-01-18T00:53:20.082Z,4.53
2019-01-18T00:55:54.716Z,3.20
2019-01-18T00:58:23.197Z,5.67
2019-01-18T01:00:54.309Z,2.87
2019-01-18T01:03:25.694Z,3.17
2019-01-18T01:05:57.017Z,3.00
2019-01-18T01:08:32.669Z,2.93
2019-01-18T01:11:06.876Z,4.93
2019-01-18T01:13:38.566Z,2.67
2019-01-18T01:16:09.878Z,4.77
2019-01-18T01:18:43.941Z,2.90
2019-01-18T01:21:15.027Z,4.67
2019-01-18T01:23:47.986Z,4.07
2019-01-18T01:26:20.885Z,2.87
2019-01-18T01:28:48.226Z,2.97
2019-01-18T01:31:30.336Z,3.00
2019-01-18T01:33:49.808Z,4.83
2019-01-18T01:36:18.406Z,4.30
2019-01-18T01:38:51.406Z,3.17
2019-01-18T01:41:21.500Z,4.03
2019-01-18T01:43:52.973Z,4.30
2019-01-18T01:46:27.367Z,4.03
2019-01-18T01:48:56.074Z,5.63
2019-01-18T01:51:30.046Z,4.03
2019-01-18T01:54:00.406Z,4.60
2019-01-18T01:56:28.830Z,6.20
2019-01-18T01:58:57.566Z,4.30
2019-01-18T02:01:27.684Z,4.67
2019-01-18T02:03:58.995Z,6.40
2019-01-18T02:06:29.085Z,4.33
2019-01-18T02:08:57.825Z,3.73
2019-01-18T02:11:26.258Z,4.40
2019-01-18T02:13:54.833Z,2.77
2019-01-18T02:16:24.119Z,6.20
2019-01-18T02:18:58.105Z,5.10
2019-01-18T02:21:28.621Z,4.13
2019-01-18T02:24:01.389Z,3.70
2019-01-18T02:26:35.981Z,3.97
2019-01-18T02:29:04.915Z,6.00
2019-01-18T02:31:33.602Z,4.83
2019-01-18T02:34:02.055Z,3.50
2019-01-18T02:36:33.460Z,4.63
2019-01-18T02:39:10.394Z,3.60
2019-01-18T02:41:41.375Z,3.30
2019-01-18T02:44:14.626Z,3.80
2019-01-18T02:46:43.357Z,5.40
2019-01-18T02:49:13.406Z,3.73
2019-01-18T02:51:50.512Z,6.53
2019-01-18T02:54:24.914Z,3.83
2019-01-18T02:56:55.009Z,5.37
2019-01-18T02:59:31.420Z,4.77
2019-01-18T03:02:01.505Z,3.93
2019-01-18T03:04:31.565Z,5.73
2019-01-18T03:07:09.032Z,4.10
2019-01-18T03:09:49.294Z,2.27
2019-01-18T03:12:19.428Z,3.43
2019-01-18T03:14:50.907Z,2.90
2019-01-18T03:17:26.999Z,3.47
2019-01-18T03:19:58.175Z,3.33
2019-01-18T03:22:32.404Z,2.60
2019-01-18T03:25:18.629Z,4.27
2019-01-18T03:27:48.708Z,2.67
2019-01-18T03:30:33.454Z,4.47
2019-01-18T03:33:08.906Z,3.50
2019-01-18T03:35:44.935Z,4.77
2019-01-18T03:38:17.646Z,3.40
2019-01-18T03:40:51.989Z,2.77
2019-01-18T03:43:22.144Z,6.23
2019-01-18T03:45:56.392Z,4.00
2019-01-18T03:48:27.826Z,4.17
2019-01-18T03:50:59.182Z,3.27
2019-01-18T03:53:30.194Z,4.10
2019-01-18T03:56:01.561Z,4.47
2019-01-18T03:58:32.693Z,4.30
2019-01-18T04:01:01.112Z,3.33
2019-01-18T04:03:34.917Z,3.93
2019-01-18T04:06:06.121Z,4.37
2019-01-18T04:08:41.025Z,3.70
2019-01-18T04:11:18.710Z,4.50
2019-01-18T04:13:47.450Z,5.77
2019-01-18T04:16:22.716Z,6.00
2019-01-18T04:18:51.153Z,4.30
2019-01-18T04:21:19.565Z,3.90
2019-01-18T04:23:53.724Z,7.57
2019-01-18T04:26:27.544Z,4.47
2019-01-18T04:28:55.962Z,4.43
2019-01-18T04:31:27.126Z,5.13
2019-01-18T04:33:57.178Z,3.73
2019-01-18T04:36:28.385Z,4.23
2019-01-18T04:39:02.629Z,4.60
2019-01-18T04:41:32.679Z,5.60
2019-01-18T04:44:01.258Z,8.30
2019-01-18T04:46:29.665Z,3.10
2019-01-18T04:48:59.720Z,4.97
2019-01-18T04:51:29.801Z,6.30
2019-01-18T04:53:58.216Z,4.10
2019-01-18T04:56:31.206Z,5.50
2019-01-18T04:59:05.440Z,5.73
2019-01-18T05:01:38.013Z,7.20
2019-01-18T05:04:09.261Z,4.90
2019-01-18T05:06:43.800Z,3.97
2019-01-18T05:09:18.208Z,7.23
2019-01-18T05:11:53.847Z,7.83
2019-01-18T05:14:30.218Z,5.00
2019-01-18T05:16:55.982Z,6.17
2019-01-18T05:19:26.061Z,4.53
2019-01-18T05:21:57.545Z,8.93
2019-01-18T05:24:31.562Z,6.77
2019-01-18T05:27:02.960Z,4.23
2019-01-18T05:29:37.069Z,3.63
2019-01-18T05:32:09.838Z,4.60
2019-01-18T05:34:39.939Z,4.83
2019-01-18T05:37:11.110Z,6.60
2019-01-18T05:39:39.843Z,6.93
2019-01-18T05:42:11.054Z,4.27
2019-01-18T05:44:45.330Z,4.03
2019-01-18T05:47:16.703Z,5.87
2019-01-18T05:49:48.018Z,3.83
2019-01-18T05:52:19.495Z,8.07
2019-01-18T05:54:50.560Z,4.63
2019-01-18T05:57:27.962Z,4.47
2019-01-18T06:00:00.428Z,5.83
2019-01-18T06:02:28.844Z,5.90
2019-01-18T06:04:57.934Z,5.53
2019-01-18T06:07:29.257Z,4.17
2019-01-18T06:09:58.634Z,3.97
2019-01-18T06:12:27.049Z,3.57
2019-01-18T06:15:04.288Z,4.60
2019-01-18T06:17:41.281Z,4.10
2019-01-18T06:20:19.164Z,3.90
2019-01-18T06:22:50.715Z,6.47
2019-01-18T06:25:25.118Z,4.97
2019-01-18T06:27:59.497Z,4.90
2019-01-18T06:30:30.460Z,7.13
2019-01-18T06:33:05.156Z,4.00
2019-01-18T06:35:38.762Z,5.67
2019-01-18T06:38:10.297Z,15.70
2019-01-18T06:40:40.508Z,7.93
2019-01-18T06:43:10.596Z,4.73
2019-01-18T06:45:41.754Z,11.33
2019-01-18T06:48:11.850Z,5.07
2019-01-18T06:50:42.669Z,5.43
2019-01-18T06:53:11.160Z,22.63
2019-01-18T06:55:42.300Z,7.87
2019-01-18T06:58:10.722Z,6.23
2019-01-18T07:00:39.397Z,23.20
2019-01-18T07:03:12.228Z,13.70
2019-01-18T07:05:46.479Z,45.10
2019-01-18T07:08:17.818Z,54.13
2019-01-18T07:10:46.249Z,13.23
2019-01-18T07:13:14.703Z,14.10
2019-01-18T07:15:44.793Z,6.43
2019-01-18T07:18:14.850Z,7.90
2019-01-18T07:20:44.536Z,7.40
2019-01-18T07:23:16.686Z,5.43
2019-01-18T07:25:50.753Z,8.07
2019-01-18T07:28:26.295Z,5.90
2019-01-18T07:30:59.248Z,4.57
2019-01-18T07:33:28.022Z,10.17
2019-01-18T07:35:58.104Z,6.97
2019-01-18T07:38:29.329Z,11.17
2019-01-18T07:40:57.752Z,16.47
2019-01-18T07:43:29.156Z,10.10
2019-01-18T07:46:03.220Z,9.13
2019-01-18T07:48:32.663Z,11.97
2019-01-18T07:51:03.853Z,5.70
2019-01-18T07:53:35.458Z,10.80
2019-01-18T07:56:09.202Z,6.47
2019-01-18T08:01:22.296Z,6.77
2019-01-18T08:03:50.926Z,8.33
2019-01-18T08:06:22.369Z,7.47
2019-01-18T08:08:50.808Z,4.93
2019-01-18T08:11:23.437Z,5.30
2019-01-18T08:13:56.095Z,3.40
2019-01-18T08:16:24.566Z,3.33
2019-01-18T08:18:54.620Z,4.90
2019-01-18T08:21:26.068Z,5.37
2019-01-18T08:24:00.263Z,4.43
2019-01-18T08:26:29.304Z,3.37
2019-01-18T08:28:59.384Z,4.77
2019-01-18T08:31:29.065Z,3.53
2019-01-18T08:34:00.657Z,4.70
2019-01-18T08:36:32.051Z,5.00
2019-01-18T08:39:02.030Z,3.40
2019-01-18T08:41:42.389Z,4.10
2019-01-18T08:44:12.440Z,3.97
2019-01-18T08:46:40.857Z,4.53
2019-01-18T08:49:18.641Z,3.93
2019-01-18T08:51:49.732Z,3.97
2019-01-18T08:54:19.858Z,4.23
2019-01-18T08:56:51.286Z,5.47
2019-01-18T08:59:19.734Z,3.33
2019-01-18T09:01:54.357Z,3.87
2019-01-18T09:04:24.125Z,4.27
2019-01-18T09:06:52.589Z,4.43
2019-01-18T09:09:22.673Z,3.57
2019-01-18T09:11:56.038Z,2.67
2019-01-18T09:14:24.734Z,2.83
2019-01-18T09:16:54.138Z,2.77
2019-01-18T09:19:32.699Z,3.67
2019-01-18T09:22:02.282Z,2.20
2019-01-18T09:24:31.245Z,3.73
2019-01-18T09:27:02.534Z,5.57
2019-01-18T09:29:32.913Z,12.07
2019-01-18T09:32:04.606Z,6.73
2019-01-18T09:34:37.026Z,7.57
2019-01-18T09:37:08.938Z,8.93
2019-01-18T09:39:40.065Z,9.80
2019-01-18T09:42:15.131Z,5.20
2019-01-18T09:44:45.502Z,14.03
2019-01-18T09:47:20.820Z,15.50
2019-01-18T09:49:55.182Z,4.73
2019-01-18T09:52:30.182Z,13.13
2019-01-18T09:55:02.902Z,7.20
2019-01-18T09:57:34.531Z,5.50
2019-01-18T10:00:04.661Z,2.60
2019-01-18T10:02:37.663Z,5.03
2019-01-18T10:05:08.950Z,7.10
2019-01-18T10:07:43.360Z,4.07
2019-01-18T10:10:17.381Z,2.30
2019-01-18T10:12:52.182Z,3.43
2019-01-18T10:15:26.050Z,3.30
2019-01-18T10:18:00.376Z,3.60
2019-01-18T10:20:24.745Z,3.50
2019-01-18T10:22:56.469Z,6.70
2019-01-18T10:25:24.888Z,7.20
2019-01-18T10:27:56.248Z,2.60
2019-01-18T10:30:31.184Z,3.67
2019-01-18T10:33:01.342Z,3.23
2019-01-18T10:35:32.393Z,5.50
2019-01-18T10:38:03.540Z,3.37
2019-01-18T10:40:36.802Z,3.20
2019-01-18T10:43:11.265Z,3.60
2019-01-18T10:45:48.968Z,4.80
2019-01-18T10:48:26.467Z,3.40
2019-01-18T10:50:58.049Z,3.60
2019-01-18T10:53:28.106Z,6.50
2019-01-18T10:55:58.094Z,8.97
2019-01-18T10:58:32.632Z,5.10
2019-01-18T11:01:05.462Z,5.10
2019-01-18T11:03:35.573Z,15.73
2019-01-18T11:06:05.638Z,18.27
2019-01-18T11:08:39.669Z,24.13
2019-01-18T11:11:10.857Z,13.77
2019-01-18T11:13:39.801Z,8.27
2019-01-18T11:16:14.352Z,5.40
2019-01-18T11:18:44.732Z,2.50
2019-01-18T11:21:15.985Z,5.50
2019-01-18T11:23:44.397Z,3.00
2019-01-18T11:26:13.133Z,6.50
2019-01-18T11:28:44.533Z,5.97
2019-01-18T11:31:23.360Z,12.43
2019-01-18T11:33:56.333Z,18.40
2019-01-18T11:36:26.400Z,4.67
2019-01-18T11:38:59.385Z,10.90
2019-01-18T11:41:27.803Z,2.93
2019-01-18T11:43:57.893Z,9.30
2019-01-18T11:46:29.340Z,3.43
2019-01-18T11:48:57.764Z,3.80
2019-01-18T11:51:28.873Z,2.83
2019-01-18T11:53:58.970Z,17.27
2019-01-18T11:56:29.021Z,6.60
2019-01-18T11:59:02.857Z,3.83
2019-01-18T12:01:39.709Z,1.90
2019-01-18T12:04:14.298Z,2.87
2019-01-18T12:06:47.393Z,2.90
2019-01-18T12:09:20.238Z,3.83
2019-01-18T12:11:53.505Z,6.83
2019-01-18T12:14:26.001Z,27.90
2019-01-18T12:17:05.845Z,4.90
2019-01-18T12:19:35.881Z,4.87
2019-01-18T12:22:07.162Z,18.30
2019-01-18T12:24:35.607Z,4.30
2019-01-18T12:27:48.263Z,8.20
2019-01-18T12:29:53.444Z,3.33
2019-01-18T12:32:21.882Z,3.23
2019-01-18T12:34:56.134Z,2.63
2019-01-18T12:37:29.233Z,5.13
2019-01-18T12:39:58.593Z,2.47
2019-01-18T12:42:37.382Z,3.40
2019-01-18T12:45:17.279Z,5.60
2019-01-18T12:47:47.338Z,7.07
2019-01-18T12:50:21.277Z,3.83
2019-01-18T12:52:52.481Z,3.23
2019-01-18T12:55:23.937Z,2.20
2019-01-18T12:57:55.258Z,2.13
2019-01-18T13:00:34.391Z,2.13
2019-01-18T13:03:08.412Z,4.00
2019-01-18T13:05:43.616Z,1.60
2019-01-18T13:08:17.533Z,4.53
2019-01-18T13:10:50.421Z,6.73
2019-01-18T13:13:18.839Z,5.47
2019-01-18T13:15:50.353Z,5.40
2019-01-18T13:18:18.776Z,4.80
2019-01-18T13:20:50.329Z,6.50
2019-01-18T13:23:27.466Z,6.50
2019-01-18T13:25:56.728Z,4.00
2019-01-18T13:28:28.194Z,2.13
2019-01-18T13:31:00.517Z,3.10
2019-01-18T13:33:29.009Z,2.53
2019-01-18T13:35:57.429Z,2.63
2019-01-18T13:38:27.508Z,4.47
2019-01-18T13:40:58.736Z,4.07
2019-01-18T13:43:31.735Z,5.57
2019-01-18T13:46:00.160Z,4.80
2019-01-18T13:48:40.152Z,3.53
2019-01-18T13:51:11.689Z,2.60
2019-01-18T13:53:40.116Z,2.77
2019-01-18T13:56:11.557Z,2.60
2019-01-18T13:58:51.158Z,3.27
2019-01-18T14:01:19.681Z,2.63
2019-01-18T14:03:57.748Z,2.03
2019-01-18T14:06:26.204Z,15.60
2019-01-18T14:08:58.944Z,22.30
2019-01-18T14:11:30.509Z,3.57
2019-01-18T14:14:01.839Z,2.20
2019-01-18T14:16:30.266Z,2.67
2019-01-18T14:19:01.537Z,3.83
2019-01-18T14:21:29.957Z,3.67
2019-01-18T14:23:58.374Z,2.20
2019-01-18T14:26:26.792Z,2.80
2019-01-18T14:28:58.013Z,2.40
2019-01-18T14:31:28.380Z,1.93
2019-01-18T14:33:58.444Z,3.43
2019-01-18T14:36:32.512Z,3.83
2019-01-18T14:39:00.913Z,4.00
2019-01-18T14:41:31.060Z,2.40
2019-01-18T14:44:00.113Z,18.30
2019-01-18T14:46:28.527Z,19.73
2019-01-18T14:48:56.962Z,12.63
2019-01-18T14:51:25.418Z,17.73
2019-01-18T14:53:58.201Z,12.13
2019-01-18T14:56:28.277Z,8.87
2019-01-18T14:59:06.544Z,3.87
2019-01-18T15:01:36.596Z,3.00
2019-01-18T15:04:07.063Z,5.27
2019-01-18T15:06:46.742Z,3.23
2019-01-18T15:09:18.217Z,4.13
2019-01-18T15:11:49.329Z,3.77
2019-01-18T15:14:17.775Z,3.93
2019-01-18T15:16:46.181Z,3.47
2019-01-18T15:19:17.284Z,2.97
2019-01-18T15:21:47.314Z,7.20
2019-01-18T15:24:15.757Z,7.47
2019-01-18T15:26:45.812Z,7.57
2019-01-18T15:29:15.888Z,5.07
2019-01-18T15:31:48.590Z,5.80
2019-01-18T15:34:17.018Z,4.93
2019-01-18T15:36:55.712Z,5.97
2019-01-18T15:39:25.890Z,4.10
2019-01-18T15:41:54.364Z,5.33
2019-01-18T15:44:25.997Z,2.83
2019-01-18T15:46:54.428Z,13.93
2019-01-18T15:49:25.984Z,13.47
2019-01-18T15:51:57.345Z,9.70
2019-01-18T15:54:25.766Z,8.93
2019-01-18T15:56:55.840Z,6.57
2019-01-18T15:59:30.077Z,4.63
2019-01-18T16:02:00.563Z,2.60
2019-01-18T16:04:31.367Z,3.37
2019-01-18T16:06:59.792Z,4.47
2019-01-18T16:09:30.982Z,3.53
2019-01-18T16:12:02.873Z,4.80
2019-01-18T16:14:38.310Z,7.33
2019-01-18T16:17:06.976Z,6.53
2019-01-18T16:19:41.518Z,5.87
2019-01-18T16:22:11.605Z,8.37
2019-01-18T16:24:40.023Z,6.40
2019-01-18T16:27:09.854Z,9.30
2019-01-18T16:29:39.885Z,7.97
2019-01-18T16:32:10.759Z,7.17
2019-01-18T16:34:39.258Z,8.43
2019-01-18T16:37:10.670Z,11.23
2019-01-18T16:39:40.723Z,9.33
2019-01-18T16:42:09.313Z,6.07
2019-01-18T16:44:40.421Z,8.93
2019-01-18T16:47:12.080Z,7.93
2019-01-18T16:49:40.520Z,6.97
2019-01-18T16:52:08.936Z,8.83
2019-01-18T16:54:37.384Z,7.80
2019-01-18T16:57:06.280Z,7.53
2019-01-18T16:59:34.688Z,8.17
2019-01-18T17:02:03.308Z,8.23
2019-01-18T17:04:31.738Z,16.93
2019-01-18T17:07:00.157Z,26.97
2019-01-18T17:09:28.639Z,24.97
2019-01-18T17:11:59.945Z,25.03
2019-01-18T17:14:28.373Z,105.57
2019-01-18T17:16:58.466Z,136.20
2019-01-18T17:19:28.626Z,70.57
2019-01-18T17:22:02.571Z,79.63
2019-01-18T17:24:32.662Z,38.20
2019-01-18T17:27:02.374Z,25.13
2019-01-18T17:29:34.652Z,11.73
2019-01-18T17:32:08.781Z,11.23
2019-01-18T17:34:37.221Z,17.53
2019-01-18T17:37:09.267Z,13.13
2019-01-18T17:39:43.485Z,9.40
2019-01-18T17:42:23.587Z,11.43
2019-01-18T17:45:24.060Z,7.20
2019-01-18T17:48:12.492Z,9.53
2019-01-18T17:51:09.036Z,5.87
2019-01-18T17:53:57.350Z,6.43
2019-01-18T17:56:50.410Z,5.30
2019-01-18T17:59:37.021Z,11.47
2019-01-18T18:02:30.586Z,18.67
2019-01-18T18:05:18.531Z,26.23
2019-01-18T18:07:52.643Z,26.87
2019-01-18T18:10:33.342Z,13.50
2019-01-18T18:13:41.330Z,10.50
2019-01-18T18:16:29.640Z,10.30
2019-01-18T18:19:33.005Z,9.57
2019-01-18T18:22:22.388Z,7.03
2019-01-18T18:25:13.422Z,7.00
2019-01-18T18:27:57.882Z,7.50
2019-01-18T18:30:29.437Z,20.17
2019-01-18T18:33:05.291Z,13.47
2019-01-18T18:35:43.976Z,12.83
2019-01-18T18:38:21.034Z,10.77
2019-01-18T18:41:01.678Z,6.50
2019-01-18T18:43:40.365Z,8.53
2019-01-18T18:46:28.993Z,18.70
2019-01-18T18:49:18.078Z,19.27
2019-01-18T18:51:58.741Z,14.13
2019-01-18T18:54:45.329Z,10.07
2019-01-18T18:57:22.156Z,11.07
2019-01-18T18:59:59.226Z,11.13
2019-01-18T19:02:50.141Z,9.53
2019-01-18T19:05:36.545Z,18.40
2019-01-18T19:08:36.782Z,20.20
2019-01-18T19:11:35.678Z,19.33
2019-01-18T19:14:12.729Z,20.30
2019-01-18T19:17:06.577Z,19.50
2019-01-18T19:20:02.499Z,17.67
2019-01-18T19:22:36.666Z,19.30
2019-01-18T19:25:23.193Z,10.67
2019-01-18T19:28:21.854Z,10.07
2019-01-18T19:31:08.465Z,20.83
2019-01-18T19:33:53.488Z,18.97
2019-01-18T19:36:44.717Z,16.40
2019-01-18T19:39:32.696Z,12.43
2019-01-18T19:42:09.933Z,7.93
2019-01-18T19:45:06.618Z,12.67
2019-01-18T19:47:45.131Z,8.10
2019-01-18T19:50:33.246Z,13.17
2019-01-18T19:53:35.101Z,13.93
2019-01-18T19:56:15.338Z,22.97
2019-01-18T19:59:11.002Z,8.40
2019-01-18T20:01:48.531Z,6.87
2019-01-18T20:04:38.218Z,7.13
2019-01-18T20:07:13.912Z,6.47
2019-01-18T20:10:00.772Z,8.50
2019-01-18T20:12:44.153Z,12.07
2019-01-18T20:15:33.815Z,11.47
2019-01-18T20:18:11.517Z,7.70
2019-01-18T20:20:51.455Z,7.23
2019-01-18T20:23:39.519Z,10.23
2019-01-18T20:26:11.018Z,7.63
2019-01-18T20:29:04.793Z,8.70
2019-01-18T20:31:59.726Z,8.10
2019-01-18T20:34:44.709Z,12.10
2019-01-18T20:37:21.765Z,11.40
2019-01-18T20:40:12.985Z,7.70
2019-01-18T20:42:59.660Z,8.83
2019-01-18T20:46:07.248Z,7.60
2019-01-18T20:48:41.616Z,33.67
2019-01-18T20:51:16.271Z,50.23
2019-01-18T20:54:09.383Z,40.53
2019-01-18T20:56:59.274Z,29.40
2019-01-18T20:59:47.488Z,29.43
2019-01-18T21:02:25.434Z,9.93
2019-01-18T21:05:14.146Z,14.20
2019-01-18T21:07:57.451Z,11.80
2019-01-18T21:10:40.905Z,9.87
2019-01-18T21:13:21.265Z,9.57
2019-01-18T21:16:16.564Z,8.93
2019-01-18T21:18:59.838Z,9.00
2019-01-18T21:21:45.947Z,10.23
2019-01-18T21:24:37.514Z,9.40
2019-01-18T21:27:18.301Z,10.17
2019-01-18T21:29:49.818Z,10.07
2019-01-18T21:32:23.817Z,8.97
2019-01-18T21:35:13.758Z,13.50
2019-01-18T21:38:03.398Z,10.47
2019-01-18T21:40:34.929Z,10.57
2019-01-18T21:43:21.920Z,9.87
2019-01-18T21:46:04.811Z,18.30
2019-01-18T21:48:53.041Z,13.13
2019-01-18T21:51:42.676Z,15.03
2019-01-18T21:54:33.744Z,17.83
2019-01-18T21:57:12.999Z,16.97
2019-01-18T22:00:02.732Z,18.97
2019-01-18T22:02:42.523Z,11.47
2019-01-18T22:05:24.018Z,10.70
2019-01-18T22:07:55.512Z,13.67
2019-01-18T22:10:50.966Z,8.13
2019-01-18T22:13:26.808Z,7.70
2019-01-18T22:16:31.630Z,8.57
2019-01-18T22:19:18.029Z,10.07
2019-01-18T22:22:10.282Z,8.40
2019-01-18T22:24:43.410Z,9.37
2019-01-18T22:27:32.940Z,10.00
2019-01-18T22:30:24.322Z,7.00
2019-01-18T22:33:07.515Z,7.20
2019-01-18T22:35:41.757Z,7.97
2019-01-18T22:38:21.541Z,9.40
2019-01-18T22:40:58.874Z,8.10
2019-01-18T22:43:42.325Z,8.10
2019-01-18T22:46:38.910Z,10.63
2019-01-18T22:49:27.356Z,4.73
2019-01-18T22:52:06.397Z,6.67
2019-01-18T22:54:44.564Z,7.80
2019-01-18T22:57:33.770Z,7.67
2019-01-18T23:00:35.010Z,6.40
2019-01-18T23:03:26.032Z,5.20
2019-01-18T23:06:14.297Z,6.37
2019-01-18T23:08:57.989Z,9.13
2019-01-18T23:11:41.506Z,10.53
2019-01-18T23:14:31.153Z,8.10
2019-01-18T23:17:26.475Z,7.17
2019-01-18T23:20:33.001Z,9.63
2019-01-18T23:23:10.250Z,7.53
2019-01-18T23:26:04.276Z,10.60
2019-01-18T23:28:50.360Z,6.70
2019-01-18T23:31:22.134Z,5.03
2019-01-18T23:33:55.305Z,7.93
2019-01-18T23:36:26.784Z,7.93
2019-01-18T23:39:09.018Z,6.87
2019-01-18T23:42:00.138Z,5.87
2019-01-18T23:44:47.973Z,5.97
2019-01-18T23:47:50.590Z,5.43
2019-01-18T23:50:36.929Z,5.90
2019-01-18T23:53:11.613Z,7.47
2019-01-18T23:56:04.333Z,8.00
2019-01-18T23:58:53.921Z,8.27
